sensor_id;sensor_type;location;lat;lon;timestamp;temperature;humidity
37086;DHT22;23001;45.952;12.676;2023-12-29T00:01:34;8.50;99.90
37086;DHT22;23001;45.952;12.676;2023-12-29T00:04:00;8.50;99.90
37086;DHT22;23001;45.952;12.676;2023-12-29T00:06:26;8.50;99.90
37086;DHT22;23001;45.952;12.676;2023-12-29T00:08:52;8.50;99.90
37086;DHT22;23001;45.952;12.676;2023-12-29T00:11:19;8.50;99.90
37086;DHT22;23001;45.952;12.676;2023-12-29T00:13:45;8.50;99.90
37086;DHT22;23001;45.952;12.676;2023-12-29T00:16:11;8.50;99.90
37086;DHT22;23001;45.952;12.676;2023-12-29T00:18:37;8.50;99.90
37086;DHT22;23001;45.952;12.676;2023-12-29T00:21:04;8.40;99.90
37086;DHT22;23001;45.952;12.676;2023-12-29T00:23:29;8.40;99.90
37086;DHT22;23001;45.952;12.676;2023-12-29T00:25:55;8.40;99.90
37086;DHT22;23001;45.952;12.676;2023-12-29T00:28:21;8.30;99.90
37086;DHT22;23001;45.952;12.676;2023-12-29T00:30:46;8.20;99.90
37086;DHT22;23001;45.952;12.676;2023-12-29T00:33:12;8.20;99.90
37086;DHT22;23001;45.952;12.676;2023-12-29T00:35:38;8.20;99.90
37086;DHT22;23001;45.952;12.676;2023-12-29T00:38:07;8.20;99.90
37086;DHT22;23001;45.952;12.676;2023-12-29T00:40:37;8.20;99.90
37086;DHT22;23001;45.952;12.676;2023-12-29T00:43:03;8.30;99.90
37086;DHT22;23001;45.952;12.676;2023-12-29T00:45:29;8.20;99.90
37086;DHT22;23001;45.952;12.676;2023-12-29T00:47:59;8.20;99.90
37086;DHT22;23001;45.952;12.676;2023-12-29T00:50:25;8.10;99.90
37086;DHT22;23001;45.952;12.676;2023-12-29T00:52:52;8.00;99.90
37086;DHT22;23001;45.952;12.676;2023-12-29T00:55:17;7.90;99.90
37086;DHT22;23001;45.952;12.676;2023-12-29T00:57:43;8.00;99.90
37086;DHT22;23001;45.952;12.676;2023-12-29T01:00:11;8.00;99.90
37086;DHT22;23001;45.952;12.676;2023-12-29T01:02:38;8.00;99.90
37086;DHT22;23001;45.952;12.676;2023-12-29T01:05:04;8.00;99.90
37086;DHT22;23001;45.952;12.676;2023-12-29T01:07:30;8.10;99.90
37086;DHT22;23001;45.952;12.676;2023-12-29T01:09:56;8.10;99.90
37086;DHT22;23001;45.952;12.676;2023-12-29T01:12:21;8.10;99.90
37086;DHT22;23001;45.952;12.676;2023-12-29T01:14:47;8.10;99.90
37086;DHT22;23001;45.952;12.676;2023-12-29T01:17:13;8.10;99.90
37086;DHT22;23001;45.952;12.676;2023-12-29T01:19:38;8.00;99.90
37086;DHT22;23001;45.952;12.676;2023-12-29T01:22:04;8.00;99.90
37086;DHT22;23001;45.952;12.676;2023-12-29T01:24:30;8.00;99.90
37086;DHT22;23001;45.952;12.676;2023-12-29T01:26:56;7.90;99.90
37086;DHT22;23001;45.952;12.676;2023-12-29T01:29:22;7.90;99.90
37086;DHT22;23001;45.952;12.676;2023-12-29T01:31:48;7.80;99.90
37086;DHT22;23001;45.952;12.676;2023-12-29T01:34:14;7.80;99.90
37086;DHT22;23001;45.952;12.676;2023-12-29T01:36:40;7.80;99.90
37086;DHT22;23001;45.952;12.676;2023-12-29T01:39:05;7.80;99.90
37086;DHT22;23001;45.952;12.676;2023-12-29T01:41:31;7.80;99.90
37086;DHT22;23001;45.952;12.676;2023-12-29T01:46:28;7.90;99.90
37086;DHT22;23001;45.952;12.676;2023-12-29T01:48:55;7.80;99.90
37086;DHT22;23001;45.952;12.676;2023-12-29T01:51:23;7.70;99.90
37086;DHT22;23001;45.952;12.676;2023-12-29T01:53:50;7.70;99.90
37086;DHT22;23001;45.952;12.676;2023-12-29T01:56:17;7.60;99.90
37086;DHT22;23001;45.952;12.676;2023-12-29T01:58:43;7.60;99.90
37086;DHT22;23001;45.952;12.676;2023-12-29T02:01:10;7.50;99.90
37086;DHT22;23001;45.952;12.676;2023-12-29T02:03:36;7.50;99.90
37086;DHT22;23001;45.952;12.676;2023-12-29T02:06:02;7.50;99.90
37086;DHT22;23001;45.952;12.676;2023-12-29T02:08:29;7.40;99.90
37086;DHT22;23001;45.952;12.676;2023-12-29T02:10:55;7.40;99.90
37086;DHT22;23001;45.952;12.676;2023-12-29T02:13:21;7.40;99.90
37086;DHT22;23001;45.952;12.676;2023-12-29T02:15:50;7.40;99.90
37086;DHT22;23001;45.952;12.676;2023-12-29T02:18:18;7.40;99.90
37086;DHT22;23001;45.952;12.676;2023-12-29T02:20:44;7.40;99.90
37086;DHT22;23001;45.952;12.676;2023-12-29T02:23:10;7.40;99.90
37086;DHT22;23001;45.952;12.676;2023-12-29T02:25:36;7.40;99.90
37086;DHT22;23001;45.952;12.676;2023-12-29T02:28:14;7.40;99.90
37086;DHT22;23001;45.952;12.676;2023-12-29T02:30:51;7.30;99.90
37086;DHT22;23001;45.952;12.676;2023-12-29T02:33:22;7.30;99.90
37086;DHT22;23001;45.952;12.676;2023-12-29T02:35:50;7.30;99.90
37086;DHT22;23001;45.952;12.676;2023-12-29T02:38:17;7.30;99.90
37086;DHT22;23001;45.952;12.676;2023-12-29T02:40:43;7.30;99.90
37086;DHT22;23001;45.952;12.676;2023-12-29T02:43:09;7.20;99.90
37086;DHT22;23001;45.952;12.676;2023-12-29T02:45:35;7.20;99.90
37086;DHT22;23001;45.952;12.676;2023-12-29T02:48:01;7.20;99.90
37086;DHT22;23001;45.952;12.676;2023-12-29T02:50:27;7.10;99.90
37086;DHT22;23001;45.952;12.676;2023-12-29T02:52:52;7.10;99.90
37086;DHT22;23001;45.952;12.676;2023-12-29T02:55:18;7.10;99.90
37086;DHT22;23001;45.952;12.676;2023-12-29T02:57:44;7.00;99.90
37086;DHT22;23001;45.952;12.676;2023-12-29T03:00:11;7.00;99.90
37086;DHT22;23001;45.952;12.676;2023-12-29T03:02:37;7.00;99.90
37086;DHT22;23001;45.952;12.676;2023-12-29T03:05:03;6.90;99.90
37086;DHT22;23001;45.952;12.676;2023-12-29T03:07:29;6.90;99.90
37086;DHT22;23001;45.952;12.676;2023-12-29T03:09:57;6.90;99.90
37086;DHT22;23001;45.952;12.676;2023-12-29T03:12:23;6.90;99.90
37086;DHT22;23001;45.952;12.676;2023-12-29T03:14:49;6.90;99.90
37086;DHT22;23001;45.952;12.676;2023-12-29T03:17:15;6.80;99.90
37086;DHT22;23001;45.952;12.676;2023-12-29T03:19:41;6.80;99.90
37086;DHT22;23001;45.952;12.676;2023-12-29T03:22:07;6.80;99.90
37086;DHT22;23001;45.952;12.676;2023-12-29T03:24:33;6.80;99.90
37086;DHT22;23001;45.952;12.676;2023-12-29T03:26:58;6.80;99.90
37086;DHT22;23001;45.952;12.676;2023-12-29T03:29:24;6.80;99.90
37086;DHT22;23001;45.952;12.676;2023-12-29T03:31:50;6.80;99.90
37086;DHT22;23001;45.952;12.676;2023-12-29T03:34:16;6.80;99.90
37086;DHT22;23001;45.952;12.676;2023-12-29T03:36:41;6.90;99.90
37086;DHT22;23001;45.952;12.676;2023-12-29T03:39:07;6.90;99.90
37086;DHT22;23001;45.952;12.676;2023-12-29T03:41:33;6.90;99.90
37086;DHT22;23001;45.952;12.676;2023-12-29T03:43:59;6.80;99.90
37086;DHT22;23001;45.952;12.676;2023-12-29T03:46:25;6.80;99.90
37086;DHT22;23001;45.952;12.676;2023-12-29T03:48:51;6.80;99.90
37086;DHT22;23001;45.952;12.676;2023-12-29T03:51:18;6.90;99.90
37086;DHT22;23001;45.952;12.676;2023-12-29T03:53:43;6.90;99.90
37086;DHT22;23001;45.952;12.676;2023-12-29T03:56:16;6.90;99.90
37086;DHT22;23001;45.952;12.676;2023-12-29T03:58:43;6.90;99.90
37086;DHT22;23001;45.952;12.676;2023-12-29T04:01:10;6.90;99.90
37086;DHT22;23001;45.952;12.676;2023-12-29T04:03:37;6.90;99.90
37086;DHT22;23001;45.952;12.676;2023-12-29T04:06:03;6.80;99.90
37086;DHT22;23001;45.952;12.676;2023-12-29T04:08:29;6.80;99.90
37086;DHT22;23001;45.952;12.676;2023-12-29T04:10:55;6.70;99.90
37086;DHT22;23001;45.952;12.676;2023-12-29T04:13:20;6.60;99.90
37086;DHT22;23001;45.952;12.676;2023-12-29T04:15:46;6.60;99.90
37086;DHT22;23001;45.952;12.676;2023-12-29T04:18:12;6.60;99.90
37086;DHT22;23001;45.952;12.676;2023-12-29T04:20:38;6.50;99.90
37086;DHT22;23001;45.952;12.676;2023-12-29T04:23:05;6.50;99.90
37086;DHT22;23001;45.952;12.676;2023-12-29T04:25:31;6.40;99.90
37086;DHT22;23001;45.952;12.676;2023-12-29T04:27:57;6.30;99.90
37086;DHT22;23001;45.952;12.676;2023-12-29T04:30:23;6.20;99.90
37086;DHT22;23001;45.952;12.676;2023-12-29T04:32:48;6.20;99.90
37086;DHT22;23001;45.952;12.676;2023-12-29T04:35:14;6.30;99.90
37086;DHT22;23001;45.952;12.676;2023-12-29T04:37:43;6.30;99.90
37086;DHT22;23001;45.952;12.676;2023-12-29T04:40:09;6.30;99.90
37086;DHT22;23001;45.952;12.676;2023-12-29T04:42:35;6.30;99.90
37086;DHT22;23001;45.952;12.676;2023-12-29T04:45:01;6.30;99.90
37086;DHT22;23001;45.952;12.676;2023-12-29T04:47:26;6.30;99.90
37086;DHT22;23001;45.952;12.676;2023-12-29T04:49:52;6.30;99.90
37086;DHT22;23001;45.952;12.676;2023-12-29T04:52:18;6.20;99.90
37086;DHT22;23001;45.952;12.676;2023-12-29T04:54:44;6.20;99.90
37086;DHT22;23001;45.952;12.676;2023-12-29T04:57:10;6.20;99.90
37086;DHT22;23001;45.952;12.676;2023-12-29T04:59:35;6.10;99.90
37086;DHT22;23001;45.952;12.676;2023-12-29T05:02:01;6.10;99.90
37086;DHT22;23001;45.952;12.676;2023-12-29T05:04:27;6.00;99.90
37086;DHT22;23001;45.952;12.676;2023-12-29T05:06:53;6.00;99.90
37086;DHT22;23001;45.952;12.676;2023-12-29T05:09:18;5.90;99.90
37086;DHT22;23001;45.952;12.676;2023-12-29T05:11:45;5.90;99.90
37086;DHT22;23001;45.952;12.676;2023-12-29T05:14:11;5.90;99.90
37086;DHT22;23001;45.952;12.676;2023-12-29T05:16:37;5.80;99.90
37086;DHT22;23001;45.952;12.676;2023-12-29T05:19:03;5.80;99.90
37086;DHT22;23001;45.952;12.676;2023-12-29T05:21:28;5.80;99.90
37086;DHT22;23001;45.952;12.676;2023-12-29T05:23:54;5.70;99.90
37086;DHT22;23001;45.952;12.676;2023-12-29T05:26:20;5.80;99.90
37086;DHT22;23001;45.952;12.676;2023-12-29T05:28:45;5.80;99.90
37086;DHT22;23001;45.952;12.676;2023-12-29T05:31:11;5.80;99.90
37086;DHT22;23001;45.952;12.676;2023-12-29T05:33:37;5.80;99.90
37086;DHT22;23001;45.952;12.676;2023-12-29T05:36:07;5.70;99.90
37086;DHT22;23001;45.952;12.676;2023-12-29T05:38:34;5.70;99.90
37086;DHT22;23001;45.952;12.676;2023-12-29T05:41:01;5.60;99.90
37086;DHT22;23001;45.952;12.676;2023-12-29T05:43:28;5.60;99.90
37086;DHT22;23001;45.952;12.676;2023-12-29T05:45:53;5.60;99.90
37086;DHT22;23001;45.952;12.676;2023-12-29T05:48:19;5.60;99.90
37086;DHT22;23001;45.952;12.676;2023-12-29T05:50:45;5.60;99.90
37086;DHT22;23001;45.952;12.676;2023-12-29T05:53:11;5.50;99.90
37086;DHT22;23001;45.952;12.676;2023-12-29T05:55:37;5.50;99.90
37086;DHT22;23001;45.952;12.676;2023-12-29T05:58:03;5.60;99.90
37086;DHT22;23001;45.952;12.676;2023-12-29T06:00:29;5.60;99.90
37086;DHT22;23001;45.952;12.676;2023-12-29T06:02:54;5.60;99.90
37086;DHT22;23001;45.952;12.676;2023-12-29T06:05:20;5.60;99.90
37086;DHT22;23001;45.952;12.676;2023-12-29T06:07:46;5.60;99.90
37086;DHT22;23001;45.952;12.676;2023-12-29T06:10:12;5.50;99.90
37086;DHT22;23001;45.952;12.676;2023-12-29T06:12:38;5.40;99.90
37086;DHT22;23001;45.952;12.676;2023-12-29T06:15:04;5.40;99.90
37086;DHT22;23001;45.952;12.676;2023-12-29T06:17:30;5.40;99.90
37086;DHT22;23001;45.952;12.676;2023-12-29T06:19:56;5.40;99.90
37086;DHT22;23001;45.952;12.676;2023-12-29T06:22:21;5.20;99.90
37086;DHT22;23001;45.952;12.676;2023-12-29T06:24:47;5.20;99.90
37086;DHT22;23001;45.952;12.676;2023-12-29T06:27:13;5.20;99.90
37086;DHT22;23001;45.952;12.676;2023-12-29T06:29:41;5.30;99.90
37086;DHT22;23001;45.952;12.676;2023-12-29T06:32:08;5.20;99.90
37086;DHT22;23001;45.952;12.676;2023-12-29T06:34:33;5.10;99.90
37086;DHT22;23001;45.952;12.676;2023-12-29T06:37:07;5.10;99.90
37086;DHT22;23001;45.952;12.676;2023-12-29T06:39:33;5.10;99.90
37086;DHT22;23001;45.952;12.676;2023-12-29T06:42:04;5.10;99.90
37086;DHT22;23001;45.952;12.676;2023-12-29T06:44:30;5.10;99.90
37086;DHT22;23001;45.952;12.676;2023-12-29T06:46:56;5.10;99.90
37086;DHT22;23001;45.952;12.676;2023-12-29T06:49:22;5.10;99.90
37086;DHT22;23001;45.952;12.676;2023-12-29T06:51:54;5.00;99.90
37086;DHT22;23001;45.952;12.676;2023-12-29T06:54:26;5.00;99.90
37086;DHT22;23001;45.952;12.676;2023-12-29T06:57:26;5.00;99.90
37086;DHT22;23001;45.952;12.676;2023-12-29T07:02:39;5.10;99.90
37086;DHT22;23001;45.952;12.676;2023-12-29T07:08:14;5.00;99.90
37086;DHT22;23001;45.952;12.676;2023-12-29T07:11:08;5.10;99.90
37086;DHT22;23001;45.952;12.676;2023-12-29T07:13:38;5.10;99.90
37086;DHT22;23001;45.952;12.676;2023-12-29T07:16:04;5.10;99.90
37086;DHT22;23001;45.952;12.676;2023-12-29T07:18:30;5.00;99.90
37086;DHT22;23001;45.952;12.676;2023-12-29T07:20:59;5.00;99.90
37086;DHT22;23001;45.952;12.676;2023-12-29T07:23:33;5.00;99.90
37086;DHT22;23001;45.952;12.676;2023-12-29T07:25:59;5.00;99.90
37086;DHT22;23001;45.952;12.676;2023-12-29T07:28:25;5.00;99.90
37086;DHT22;23001;45.952;12.676;2023-12-29T07:30:51;5.10;99.90
37086;DHT22;23001;45.952;12.676;2023-12-29T07:33:17;5.20;99.90
37086;DHT22;23001;45.952;12.676;2023-12-29T07:35:43;5.10;99.90
37086;DHT22;23001;45.952;12.676;2023-12-29T07:38:11;5.10;99.90
37086;DHT22;23001;45.952;12.676;2023-12-29T07:40:42;5.00;99.90
37086;DHT22;23001;45.952;12.676;2023-12-29T07:43:16;5.00;99.90
37086;DHT22;23001;45.952;12.676;2023-12-29T07:45:42;5.10;99.90
37086;DHT22;23001;45.952;12.676;2023-12-29T07:48:11;5.00;99.90
37086;DHT22;23001;45.952;12.676;2023-12-29T07:50:36;5.10;99.90
37086;DHT22;23001;45.952;12.676;2023-12-29T07:53:02;5.10;99.90
37086;DHT22;23001;45.952;12.676;2023-12-29T07:55:30;5.10;99.90
37086;DHT22;23001;45.952;12.676;2023-12-29T07:57:56;5.30;99.90
37086;DHT22;23001;45.952;12.676;2023-12-29T08:00:24;5.40;99.90
37086;DHT22;23001;45.952;12.676;2023-12-29T08:02:52;5.40;99.90
37086;DHT22;23001;45.952;12.676;2023-12-29T08:05:17;5.40;99.90
37086;DHT22;23001;45.952;12.676;2023-12-29T08:07:43;5.30;99.90
37086;DHT22;23001;45.952;12.676;2023-12-29T08:10:09;5.30;99.90
37086;DHT22;23001;45.952;12.676;2023-12-29T08:12:46;5.50;99.90
37086;DHT22;23001;45.952;12.676;2023-12-29T08:15:18;5.60;99.90
37086;DHT22;23001;45.952;12.676;2023-12-29T10:26:00;7.50;99.90
37086;DHT22;23001;45.952;12.676;2023-12-29T10:28:59;7.80;99.90
37086;DHT22;23001;45.952;12.676;2023-12-29T10:42:04;8.20;99.90
37086;DHT22;23001;45.952;12.676;2023-12-29T10:51:07;8.40;99.90
37086;DHT22;23001;45.952;12.676;2023-12-29T10:53:43;8.40;99.90
37086;DHT22;23001;45.952;12.676;2023-12-29T10:56:23;8.30;99.90
37086;DHT22;23001;45.952;12.676;2023-12-29T10:59:05;8.50;99.90
37086;DHT22;23001;45.952;12.676;2023-12-29T11:01:35;8.60;99.90
37086;DHT22;23001;45.952;12.676;2023-12-29T11:04:02;8.70;99.90
37086;DHT22;23001;45.952;12.676;2023-12-29T11:06:29;8.80;99.90
37086;DHT22;23001;45.952;12.676;2023-12-29T11:08:55;8.80;99.90
37086;DHT22;23001;45.952;12.676;2023-12-29T11:11:22;8.80;99.90
37086;DHT22;23001;45.952;12.676;2023-12-29T11:13:48;8.90;99.90
37086;DHT22;23001;45.952;12.676;2023-12-29T11:16:15;8.90;99.90
37086;DHT22;23001;45.952;12.676;2023-12-29T11:18:47;9.00;99.90
37086;DHT22;23001;45.952;12.676;2023-12-29T11:21:16;8.80;99.90
37086;DHT22;23001;45.952;12.676;2023-12-29T11:23:42;8.90;99.90
37086;DHT22;23001;45.952;12.676;2023-12-29T11:26:09;9.00;99.90
37086;DHT22;23001;45.952;12.676;2023-12-29T11:28:35;9.00;99.90
37086;DHT22;23001;45.952;12.676;2023-12-29T11:31:04;8.90;99.90
37086;DHT22;23001;45.952;12.676;2023-12-29T11:33:39;9.00;99.90
37086;DHT22;23001;45.952;12.676;2023-12-29T11:36:16;9.10;99.90
37086;DHT22;23001;45.952;12.676;2023-12-29T11:39:27;9.20;99.90
37086;DHT22;23001;45.952;12.676;2023-12-29T11:42:04;9.20;99.90
37086;DHT22;23001;45.952;12.676;2023-12-29T11:44:31;9.30;99.90
37086;DHT22;23001;45.952;12.676;2023-12-29T11:46:58;9.30;99.90
37086;DHT22;23001;45.952;12.676;2023-12-29T11:49:25;9.20;99.90
37086;DHT22;23001;45.952;12.676;2023-12-29T11:52:32;9.30;99.90
37086;DHT22;23001;45.952;12.676;2023-12-29T11:55:43;9.30;99.90
37086;DHT22;23001;45.952;12.676;2023-12-29T11:58:47;9.30;99.90
37086;DHT22;23001;45.952;12.676;2023-12-29T12:01:13;9.30;99.90
37086;DHT22;23001;45.952;12.676;2023-12-29T12:03:41;9.20;99.90
37086;DHT22;23001;45.952;12.676;2023-12-29T12:12:59;9.20;99.90
37086;DHT22;23001;45.952;12.676;2023-12-29T13:05:47;9.50;99.90
37086;DHT22;23001;45.952;12.676;2023-12-29T13:08:14;9.50;99.90
37086;DHT22;23001;45.952;12.676;2023-12-29T13:10:43;9.50;99.90
37086;DHT22;23001;45.952;12.676;2023-12-29T13:13:11;9.50;99.90
37086;DHT22;23001;45.952;12.676;2023-12-29T13:15:50;9.50;99.90
37086;DHT22;23001;45.952;12.676;2023-12-29T13:18:17;9.50;99.90
37086;DHT22;23001;45.952;12.676;2023-12-29T13:20:44;9.50;99.90
37086;DHT22;23001;45.952;12.676;2023-12-29T13:23:10;9.50;99.90
37086;DHT22;23001;45.952;12.676;2023-12-29T13:25:36;9.50;99.90
37086;DHT22;23001;45.952;12.676;2023-12-29T13:28:05;9.50;99.90
37086;DHT22;23001;45.952;12.676;2023-12-29T13:30:32;9.50;99.90
37086;DHT22;23001;45.952;12.676;2023-12-29T13:36:38;9.50;99.90
37086;DHT22;23001;45.952;12.676;2023-12-29T13:39:27;9.50;99.90
37086;DHT22;23001;45.952;12.676;2023-12-29T13:44:44;9.50;99.90
37086;DHT22;23001;45.952;12.676;2023-12-29T13:47:11;9.50;99.90
37086;DHT22;23001;45.952;12.676;2023-12-29T13:49:37;9.40;99.90
37086;DHT22;23001;45.952;12.676;2023-12-29T13:52:04;9.40;99.90
37086;DHT22;23001;45.952;12.676;2023-12-29T13:54:30;9.40;99.90
37086;DHT22;23001;45.952;12.676;2023-12-29T13:56:56;9.40;99.90
37086;DHT22;23001;45.952;12.676;2023-12-29T13:59:31;9.30;99.90
37086;DHT22;23001;45.952;12.676;2023-12-29T14:02:18;9.40;99.90
37086;DHT22;23001;45.952;12.676;2023-12-29T14:04:45;9.30;99.90
37086;DHT22;23001;45.952;12.676;2023-12-29T14:39:39;8.60;99.90
37086;DHT22;23001;45.952;12.676;2023-12-29T14:49:59;8.50;99.90
37086;DHT22;23001;45.952;12.676;2023-12-29T14:55:46;8.40;99.90
37086;DHT22;23001;45.952;12.676;2023-12-29T14:58:19;8.40;99.90
37086;DHT22;23001;45.952;12.676;2023-12-29T15:01:44;8.40;99.90
37086;DHT22;23001;45.952;12.676;2023-12-29T15:10:02;8.30;99.90
37086;DHT22;23001;45.952;12.676;2023-12-29T15:12:40;8.20;99.90
37086;DHT22;23001;45.952;12.676;2023-12-29T15:15:19;8.10;99.90
37086;DHT22;23001;45.952;12.676;2023-12-29T15:17:57;8.00;99.90
37086;DHT22;23001;45.952;12.676;2023-12-29T15:20:46;8.00;99.90
37086;DHT22;23001;45.952;12.676;2023-12-29T15:23:18;8.10;99.90
37086;DHT22;23001;45.952;12.676;2023-12-29T15:25:59;8.10;99.90
37086;DHT22;23001;45.952;12.676;2023-12-29T15:28:25;8.10;99.90
37086;DHT22;23001;45.952;12.676;2023-12-29T15:30:53;8.00;99.90
37086;DHT22;23001;45.952;12.676;2023-12-29T15:33:22;8.00;99.90
37086;DHT22;23001;45.952;12.676;2023-12-29T15:35:51;8.00;99.90
37086;DHT22;23001;45.952;12.676;2023-12-29T15:38:19;7.90;99.90
37086;DHT22;23001;45.952;12.676;2023-12-29T15:40:45;7.90;99.90
37086;DHT22;23001;45.952;12.676;2023-12-29T15:43:11;7.90;99.90
37086;DHT22;23001;45.952;12.676;2023-12-29T15:45:42;7.90;99.90
37086;DHT22;23001;45.952;12.676;2023-12-29T15:48:08;7.80;99.90
37086;DHT22;23001;45.952;12.676;2023-12-29T15:50:34;7.80;99.90
37086;DHT22;23001;45.952;12.676;2023-12-29T15:53:00;7.90;99.90
37086;DHT22;23001;45.952;12.676;2023-12-29T15:55:26;7.80;99.90
37086;DHT22;23001;45.952;12.676;2023-12-29T15:57:52;7.80;99.90
37086;DHT22;23001;45.952;12.676;2023-12-29T16:00:17;7.80;99.90
37086;DHT22;23001;45.952;12.676;2023-12-29T16:02:43;7.80;99.90
37086;DHT22;23001;45.952;12.676;2023-12-29T16:05:10;7.80;99.90
37086;DHT22;23001;45.952;12.676;2023-12-29T16:07:36;7.80;99.90
37086;DHT22;23001;45.952;12.676;2023-12-29T16:10:04;7.70;99.90
37086;DHT22;23001;45.952;12.676;2023-12-29T16:12:32;7.60;99.90
37086;DHT22;23001;45.952;12.676;2023-12-29T16:14:59;7.60;99.90
37086;DHT22;23001;45.952;12.676;2023-12-29T16:17:24;7.60;99.90
37086;DHT22;23001;45.952;12.676;2023-12-29T16:19:50;7.60;99.90
37086;DHT22;23001;45.952;12.676;2023-12-29T16:22:16;7.70;99.90
37086;DHT22;23001;45.952;12.676;2023-12-29T16:24:49;7.60;99.90
37086;DHT22;23001;45.952;12.676;2023-12-29T16:27:16;7.60;99.90
37086;DHT22;23001;45.952;12.676;2023-12-29T16:29:45;7.60;99.90
37086;DHT22;23001;45.952;12.676;2023-12-29T16:32:10;7.60;99.90
37086;DHT22;23001;45.952;12.676;2023-12-29T16:34:41;7.60;99.90
37086;DHT22;23001;45.952;12.676;2023-12-29T16:37:07;7.60;99.90
37086;DHT22;23001;45.952;12.676;2023-12-29T16:39:34;7.60;99.90
37086;DHT22;23001;45.952;12.676;2023-12-29T16:42:02;7.60;99.90
37086;DHT22;23001;45.952;12.676;2023-12-29T16:44:29;7.50;99.90
37086;DHT22;23001;45.952;12.676;2023-12-29T16:46:54;7.60;99.90
37086;DHT22;23001;45.952;12.676;2023-12-29T16:49:20;7.50;99.90
37086;DHT22;23001;45.952;12.676;2023-12-29T16:51:46;7.50;99.90
37086;DHT22;23001;45.952;12.676;2023-12-29T16:54:11;7.40;99.90
37086;DHT22;23001;45.952;12.676;2023-12-29T16:56:37;7.40;99.90
37086;DHT22;23001;45.952;12.676;2023-12-29T16:59:03;7.40;99.90
37086;DHT22;23001;45.952;12.676;2023-12-29T17:01:31;7.40;99.90
37086;DHT22;23001;45.952;12.676;2023-12-29T17:03:57;7.40;99.90
37086;DHT22;23001;45.952;12.676;2023-12-29T17:06:23;7.40;99.90
37086;DHT22;23001;45.952;12.676;2023-12-29T17:08:49;7.40;99.90
37086;DHT22;23001;45.952;12.676;2023-12-29T17:11:14;7.40;99.90
37086;DHT22;23001;45.952;12.676;2023-12-29T17:13:40;7.40;99.90
37086;DHT22;23001;45.952;12.676;2023-12-29T17:16:09;7.40;99.90
37086;DHT22;23001;45.952;12.676;2023-12-29T17:21:40;7.50;99.90
37086;DHT22;23001;45.952;12.676;2023-12-29T17:27:50;7.50;99.90
37086;DHT22;23001;45.952;12.676;2023-12-29T17:33:43;7.50;99.90
37086;DHT22;23001;45.952;12.676;2023-12-29T17:36:37;7.50;99.90
37086;DHT22;23001;45.952;12.676;2023-12-29T17:39:18;7.50;99.90
37086;DHT22;23001;45.952;12.676;2023-12-29T17:42:21;7.60;99.90
37086;DHT22;23001;45.952;12.676;2023-12-29T17:45:13;7.60;99.90
37086;DHT22;23001;45.952;12.676;2023-12-29T17:47:47;7.60;99.90
37086;DHT22;23001;45.952;12.676;2023-12-29T17:50:22;7.60;99.90
37086;DHT22;23001;45.952;12.676;2023-12-29T17:52:55;7.60;99.90
37086;DHT22;23001;45.952;12.676;2023-12-29T17:55:26;7.60;99.90
37086;DHT22;23001;45.952;12.676;2023-12-29T17:57:56;7.60;99.90
37086;DHT22;23001;45.952;12.676;2023-12-29T18:00:29;7.60;99.90
37086;DHT22;23001;45.952;12.676;2023-12-29T18:03:05;7.60;99.90
37086;DHT22;23001;45.952;12.676;2023-12-29T18:08:12;7.60;99.90
37086;DHT22;23001;45.952;12.676;2023-12-29T18:10:40;7.60;99.90
37086;DHT22;23001;45.952;12.676;2023-12-29T18:13:06;7.60;99.90
37086;DHT22;23001;45.952;12.676;2023-12-29T18:15:35;7.60;99.90
37086;DHT22;23001;45.952;12.676;2023-12-29T18:18:01;7.70;99.90
37086;DHT22;23001;45.952;12.676;2023-12-29T18:20:27;7.70;99.90
37086;DHT22;23001;45.952;12.676;2023-12-29T18:23:09;7.60;99.90
37086;DHT22;23001;45.952;12.676;2023-12-29T18:25:34;7.60;99.90
37086;DHT22;23001;45.952;12.676;2023-12-29T18:28:00;7.50;99.90
37086;DHT22;23001;45.952;12.676;2023-12-29T18:30:27;7.60;99.90
37086;DHT22;23001;45.952;12.676;2023-12-29T18:32:52;7.60;99.90
37086;DHT22;23001;45.952;12.676;2023-12-29T18:35:18;7.50;99.90
37086;DHT22;23001;45.952;12.676;2023-12-29T18:37:44;7.50;99.90
37086;DHT22;23001;45.952;12.676;2023-12-29T18:40:11;7.50;99.90
37086;DHT22;23001;45.952;12.676;2023-12-29T18:42:37;7.50;99.90
37086;DHT22;23001;45.952;12.676;2023-12-29T18:45:03;7.60;99.90
37086;DHT22;23001;45.952;12.676;2023-12-29T18:47:29;7.60;99.90
37086;DHT22;23001;45.952;12.676;2023-12-29T18:49:55;7.60;99.90
37086;DHT22;23001;45.952;12.676;2023-12-29T18:52:21;7.60;99.90
37086;DHT22;23001;45.952;12.676;2023-12-29T18:57:31;7.60;99.90
37086;DHT22;23001;45.952;12.676;2023-12-29T18:59:57;7.60;99.90
37086;DHT22;23001;45.952;12.676;2023-12-29T19:02:23;7.60;99.90
37086;DHT22;23001;45.952;12.676;2023-12-29T19:05:04;7.60;99.90
37086;DHT22;23001;45.952;12.676;2023-12-29T19:07:30;7.60;99.90
37086;DHT22;23001;45.952;12.676;2023-12-29T19:09:56;7.60;99.90
37086;DHT22;23001;45.952;12.676;2023-12-29T19:12:21;7.60;99.90
37086;DHT22;23001;45.952;12.676;2023-12-29T19:14:47;7.60;99.90
37086;DHT22;23001;45.952;12.676;2023-12-29T19:17:18;7.60;99.90
37086;DHT22;23001;45.952;12.676;2023-12-29T19:19:44;7.60;99.90
37086;DHT22;23001;45.952;12.676;2023-12-29T19:25:14;7.70;99.90
37086;DHT22;23001;45.952;12.676;2023-12-29T19:27:43;7.60;99.90
37086;DHT22;23001;45.952;12.676;2023-12-29T19:38:00;7.60;99.90
37086;DHT22;23001;45.952;12.676;2023-12-29T19:40:58;7.60;99.90
37086;DHT22;23001;45.952;12.676;2023-12-29T19:43:36;7.60;99.90
37086;DHT22;23001;45.952;12.676;2023-12-29T19:46:15;7.50;99.90
37086;DHT22;23001;45.952;12.676;2023-12-29T19:48:56;7.50;99.90
37086;DHT22;23001;45.952;12.676;2023-12-29T19:51:21;7.50;99.90
37086;DHT22;23001;45.952;12.676;2023-12-29T19:53:48;7.60;99.90
37086;DHT22;23001;45.952;12.676;2023-12-29T19:56:27;7.60;99.90
37086;DHT22;23001;45.952;12.676;2023-12-29T19:58:53;7.70;99.90
37086;DHT22;23001;45.952;12.676;2023-12-29T20:01:20;7.70;99.90
37086;DHT22;23001;45.952;12.676;2023-12-29T20:03:47;7.70;99.90
37086;DHT22;23001;45.952;12.676;2023-12-29T20:06:20;7.60;99.90
37086;DHT22;23001;45.952;12.676;2023-12-29T20:08:48;7.70;99.90
37086;DHT22;23001;45.952;12.676;2023-12-29T20:11:13;7.70;99.90
37086;DHT22;23001;45.952;12.676;2023-12-29T20:13:39;7.70;99.90
37086;DHT22;23001;45.952;12.676;2023-12-29T20:16:05;7.70;99.90
37086;DHT22;23001;45.952;12.676;2023-12-29T20:18:31;7.70;99.90
37086;DHT22;23001;45.952;12.676;2023-12-29T20:20:57;7.70;99.90
37086;DHT22;23001;45.952;12.676;2023-12-29T20:23:23;7.70;99.90
37086;DHT22;23001;45.952;12.676;2023-12-29T20:25:52;7.70;99.90
37086;DHT22;23001;45.952;12.676;2023-12-29T20:28:20;7.70;99.90
37086;DHT22;23001;45.952;12.676;2023-12-29T20:30:46;7.70;99.90
37086;DHT22;23001;45.952;12.676;2023-12-29T20:33:11;7.70;99.90